sensor_id;sensor_type;location;lat;lon;timestamp;temperature;humidity
2190;DHT22;1101;51.056;7.262;2022-11-20T00:00:31;2.50;99.90
2190;DHT22;1101;51.056;7.262;2022-11-20T00:02:59;2.50;99.90
2190;DHT22;1101;51.056;7.262;2022-11-20T00:05:26;2.50;99.90
2190;DHT22;1101;51.056;7.262;2022-11-20T00:07:54;2.50;99.90
2190;DHT22;1101;51.056;7.262;2022-11-20T00:10:22;2.50;99.90
2190;DHT22;1101;51.056;7.262;2022-11-20T00:12:50;2.50;99.90
2190;DHT22;1101;51.056;7.262;2022-11-20T00:15:18;2.50;99.90
2190;DHT22;1101;51.056;7.262;2022-11-20T00:17:47;2.60;99.90
2190;DHT22;1101;51.056;7.262;2022-11-20T00:20:14;2.60;99.90
2190;DHT22;1101;51.056;7.262;2022-11-20T00:22:42;2.50;99.90
2190;DHT22;1101;51.056;7.262;2022-11-20T00:25:10;2.50;99.90
2190;DHT22;1101;51.056;7.262;2022-11-20T00:27:38;2.50;99.90
2190;DHT22;1101;51.056;7.262;2022-11-20T00:30:07;2.50;99.90
2190;DHT22;1101;51.056;7.262;2022-11-20T00:32:40;2.50;99.90
2190;DHT22;1101;51.056;7.262;2022-11-20T00:35:09;2.50;99.90
2190;DHT22;1101;51.056;7.262;2022-11-20T00:37:37;2.50;99.90
2190;DHT22;1101;51.056;7.262;2022-11-20T00:40:06;2.50;99.90
2190;DHT22;1101;51.056;7.262;2022-11-20T00:42:34;2.50;99.90
2190;DHT22;1101;51.056;7.262;2022-11-20T00:45:02;2.50;99.90
2190;DHT22;1101;51.056;7.262;2022-11-20T00:47:30;2.50;99.90
2190;DHT22;1101;51.056;7.262;2022-11-20T00:49:57;2.50;99.90
2190;DHT22;1101;51.056;7.262;2022-11-20T00:52:26;2.50;99.90
2190;DHT22;1101;51.056;7.262;2022-11-20T00:54:54;2.50;99.90
2190;DHT22;1101;51.056;7.262;2022-11-20T00:57:22;2.50;99.90
2190;DHT22;1101;51.056;7.262;2022-11-20T00:59:50;2.50;99.90
2190;DHT22;1101;51.056;7.262;2022-11-20T01:02:17;2.50;99.90
2190;DHT22;1101;51.056;7.262;2022-11-20T01:04:45;2.40;99.90
2190;DHT22;1101;51.056;7.262;2022-11-20T01:07:13;2.40;99.90
2190;DHT22;1101;51.056;7.262;2022-11-20T01:09:42;2.40;99.90
2190;DHT22;1101;51.056;7.262;2022-11-20T01:12:10;2.40;99.90
2190;DHT22;1101;51.056;7.262;2022-11-20T01:14:38;2.50;99.90
2190;DHT22;1101;51.056;7.262;2022-11-20T01:17:05;2.50;99.90
2190;DHT22;1101;51.056;7.262;2022-11-20T01:19:33;2.50;99.90
2190;DHT22;1101;51.056;7.262;2022-11-20T01:22:01;2.50;99.90
2190;DHT22;1101;51.056;7.262;2022-11-20T01:24:29;2.50;99.90
2190;DHT22;1101;51.056;7.262;2022-11-20T01:26:58;2.60;99.90
2190;DHT22;1101;51.056;7.262;2022-11-20T01:29:25;2.60;99.90
2190;DHT22;1101;51.056;7.262;2022-11-20T01:31:53;2.60;99.90
2190;DHT22;1101;51.056;7.262;2022-11-20T01:34:22;2.60;99.90
2190;DHT22;1101;51.056;7.262;2022-11-20T01:36:50;2.60;99.90
2190;DHT22;1101;51.056;7.262;2022-11-20T01:39:21;2.60;99.90
2190;DHT22;1101;51.056;7.262;2022-11-20T01:41:50;2.60;99.90
2190;DHT22;1101;51.056;7.262;2022-11-20T01:44:55;2.60;99.90
2190;DHT22;1101;51.056;7.262;2022-11-20T01:47:27;2.60;99.90
2190;DHT22;1101;51.056;7.262;2022-11-20T01:49:58;2.60;99.90
2190;DHT22;1101;51.056;7.262;2022-11-20T01:52:30;2.60;99.90
2190;DHT22;1101;51.056;7.262;2022-11-20T01:55:03;2.70;99.90
2190;DHT22;1101;51.056;7.262;2022-11-20T01:57:33;2.70;99.90
2190;DHT22;1101;51.056;7.262;2022-11-20T02:00:07;2.60;99.90
2190;DHT22;1101;51.056;7.262;2022-11-20T02:02:37;2.60;99.90
2190;DHT22;1101;51.056;7.262;2022-11-20T02:05:12;2.70;99.90
2190;DHT22;1101;51.056;7.262;2022-11-20T02:07:42;2.70;99.90
2190;DHT22;1101;51.056;7.262;2022-11-20T02:10:11;2.70;99.90
2190;DHT22;1101;51.056;7.262;2022-11-20T02:12:39;2.70;99.90
2190;DHT22;1101;51.056;7.262;2022-11-20T02:15:25;2.70;99.90
2190;DHT22;1101;51.056;7.262;2022-11-20T02:17:56;2.70;99.90
2190;DHT22;1101;51.056;7.262;2022-11-20T02:20:24;2.70;99.90
2190;DHT22;1101;51.056;7.262;2022-11-20T02:22:54;2.70;99.90
2190;DHT22;1101;51.056;7.262;2022-11-20T02:25:26;2.70;99.90
2190;DHT22;1101;51.056;7.262;2022-11-20T02:27:55;2.70;99.90
2190;DHT22;1101;51.056;7.262;2022-11-20T02:30:23;2.70;99.90
2190;DHT22;1101;51.056;7.262;2022-11-20T02:32:51;2.70;99.90
2190;DHT22;1101;51.056;7.262;2022-11-20T02:35:42;2.70;99.90
2190;DHT22;1101;51.056;7.262;2022-11-20T02:38:10;2.70;99.90
2190;DHT22;1101;51.056;7.262;2022-11-20T02:40:39;2.70;99.90
2190;DHT22;1101;51.056;7.262;2022-11-20T02:43:07;2.70;99.90
2190;DHT22;1101;51.056;7.262;2022-11-20T02:45:36;2.70;99.90
2190;DHT22;1101;51.056;7.262;2022-11-20T02:48:05;2.70;99.90
2190;DHT22;1101;51.056;7.262;2022-11-20T02:50:33;2.70;99.90
2190;DHT22;1101;51.056;7.262;2022-11-20T02:53:00;2.70;99.90
2190;DHT22;1101;51.056;7.262;2022-11-20T02:55:28;2.70;99.90
2190;DHT22;1101;51.056;7.262;2022-11-20T02:57:57;2.70;99.90
2190;DHT22;1101;51.056;7.262;2022-11-20T03:00:25;2.70;99.90
2190;DHT22;1101;51.056;7.262;2022-11-20T03:02:53;2.70;99.90
2190;DHT22;1101;51.056;7.262;2022-11-20T03:05:21;2.70;99.90
2190;DHT22;1101;51.056;7.262;2022-11-20T03:07:48;2.70;99.90
2190;DHT22;1101;51.056;7.262;2022-11-20T03:10:16;2.70;99.90
2190;DHT22;1101;51.056;7.262;2022-11-20T03:12:44;2.70;99.90
2190;DHT22;1101;51.056;7.262;2022-11-20T03:15:13;2.60;99.90
2190;DHT22;1101;51.056;7.262;2022-11-20T03:17:41;2.60;99.90
2190;DHT22;1101;51.056;7.262;2022-11-20T03:20:09;2.60;99.90
2190;DHT22;1101;51.056;7.262;2022-11-20T03:22:37;2.60;99.90
2190;DHT22;1101;51.056;7.262;2022-11-20T03:25:05;2.60;99.90
2190;DHT22;1101;51.056;7.262;2022-11-20T03:27:33;2.60;99.90
2190;DHT22;1101;51.056;7.262;2022-11-20T03:30:02;2.60;99.90
2190;DHT22;1101;51.056;7.262;2022-11-20T03:32:31;2.60;99.90
2190;DHT22;1101;51.056;7.262;2022-11-20T03:34:59;2.70;99.90
2190;DHT22;1101;51.056;7.262;2022-11-20T03:37:27;2.60;99.90
2190;DHT22;1101;51.056;7.262;2022-11-20T03:39:55;2.60;99.90
2190;DHT22;1101;51.056;7.262;2022-11-20T03:42:23;2.60;99.90
2190;DHT22;1101;51.056;7.262;2022-11-20T03:45:08;2.60;99.90
2190;DHT22;1101;51.056;7.262;2022-11-20T03:47:37;2.60;99.90
2190;DHT22;1101;51.056;7.262;2022-11-20T03:50:06;2.60;99.90
2190;DHT22;1101;51.056;7.262;2022-11-20T03:52:34;2.60;99.90
2190;DHT22;1101;51.056;7.262;2022-11-20T03:55:02;2.50;99.90
2190;DHT22;1101;51.056;7.262;2022-11-20T03:57:30;2.50;99.90
2190;DHT22;1101;51.056;7.262;2022-11-20T03:59:58;2.50;99.90
2190;DHT22;1101;51.056;7.262;2022-11-20T04:02:25;2.50;99.90
2190;DHT22;1101;51.056;7.262;2022-11-20T04:04:55;2.50;99.90
2190;DHT22;1101;51.056;7.262;2022-11-20T04:07:22;2.50;99.90
2190;DHT22;1101;51.056;7.262;2022-11-20T04:09:50;2.50;99.90
2190;DHT22;1101;51.056;7.262;2022-11-20T04:12:18;2.50;99.90
2190;DHT22;1101;51.056;7.262;2022-11-20T04:14:46;2.50;99.90
2190;DHT22;1101;51.056;7.262;2022-11-20T04:17:13;2.50;99.90
2190;DHT22;1101;51.056;7.262;2022-11-20T04:19:41;2.50;99.90
2190;DHT22;1101;51.056;7.262;2022-11-20T04:22:10;2.50;99.90
2190;DHT22;1101;51.056;7.262;2022-11-20T04:24:38;2.50;99.90
2190;DHT22;1101;51.056;7.262;2022-11-20T04:27:06;2.50;99.90
2190;DHT22;1101;51.056;7.262;2022-11-20T04:29:34;2.50;99.90
2190;DHT22;1101;51.056;7.262;2022-11-20T04:32:02;2.50;99.90
2190;DHT22;1101;51.056;7.262;2022-11-20T04:34:29;2.50;99.90
2190;DHT22;1101;51.056;7.262;2022-11-20T04:36:57;2.50;99.90
2190;DHT22;1101;51.056;7.262;2022-11-20T04:39:26;2.50;99.90
2190;DHT22;1101;51.056;7.262;2022-11-20T04:41:54;2.50;99.90
2190;DHT22;1101;51.056;7.262;2022-11-20T04:44:36;2.50;99.90
2190;DHT22;1101;51.056;7.262;2022-11-20T04:47:03;2.50;99.90
2190;DHT22;1101;51.056;7.262;2022-11-20T04:49:31;2.50;99.90
2190;DHT22;1101;51.056;7.262;2022-11-20T04:52:00;2.50;99.90
2190;DHT22;1101;51.056;7.262;2022-11-20T04:54:29;2.50;99.90
2190;DHT22;1101;51.056;7.262;2022-11-20T04:56:57;2.50;99.90
2190;DHT22;1101;51.056;7.262;2022-11-20T04:59:25;2.50;99.90
2190;DHT22;1101;51.056;7.262;2022-11-20T05:01:52;2.60;99.90
2190;DHT22;1101;51.056;7.262;2022-11-20T05:04:20;2.60;99.90
2190;DHT22;1101;51.056;7.262;2022-11-20T05:06:49;2.50;99.90
2190;DHT22;1101;51.056;7.262;2022-11-20T05:09:17;2.50;99.90
2190;DHT22;1101;51.056;7.262;2022-11-20T05:11:46;2.60;99.90
2190;DHT22;1101;51.056;7.262;2022-11-20T05:14:17;2.50;99.90
2190;DHT22;1101;51.056;7.262;2022-11-20T05:16:45;2.50;99.90
2190;DHT22;1101;51.056;7.262;2022-11-20T05:19:13;2.50;99.90
2190;DHT22;1101;51.056;7.262;2022-11-20T05:21:40;2.50;99.90
2190;DHT22;1101;51.056;7.262;2022-11-20T05:24:08;2.50;99.90
2190;DHT22;1101;51.056;7.262;2022-11-20T05:26:36;2.50;99.90
2190;DHT22;1101;51.056;7.262;2022-11-20T05:29:05;2.50;99.90
2190;DHT22;1101;51.056;7.262;2022-11-20T05:31:33;2.50;99.90
2190;DHT22;1101;51.056;7.262;2022-11-20T05:34:01;2.50;99.90
2190;DHT22;1101;51.056;7.262;2022-11-20T05:36:29;2.50;99.90
2190;DHT22;1101;51.056;7.262;2022-11-20T05:38:57;2.50;99.90
2190;DHT22;1101;51.056;7.262;2022-11-20T05:41:28;2.50;99.90
2190;DHT22;1101;51.056;7.262;2022-11-20T05:43:56;2.50;99.90
2190;DHT22;1101;51.056;7.262;2022-11-20T05:46:26;2.50;99.90
2190;DHT22;1101;51.056;7.262;2022-11-20T05:48:56;2.50;99.90
2190;DHT22;1101;51.056;7.262;2022-11-20T05:51:25;2.50;99.90
2190;DHT22;1101;51.056;7.262;2022-11-20T05:53:53;2.50;99.90
2190;DHT22;1101;51.056;7.262;2022-11-20T05:56:21;2.50;99.90
2190;DHT22;1101;51.056;7.262;2022-11-20T05:58:49;2.50;99.90
2190;DHT22;1101;51.056;7.262;2022-11-20T06:01:18;2.50;99.90
2190;DHT22;1101;51.056;7.262;2022-11-20T06:03:48;2.50;99.90
2190;DHT22;1101;51.056;7.262;2022-11-20T06:06:17;2.50;99.90
2190;DHT22;1101;51.056;7.262;2022-11-20T06:08:45;2.50;99.90
2190;DHT22;1101;51.056;7.262;2022-11-20T06:11:14;2.50;99.90
2190;DHT22;1101;51.056;7.262;2022-11-20T06:13:42;2.50;99.90
2190;DHT22;1101;51.056;7.262;2022-11-20T06:16:11;2.60;99.90
2190;DHT22;1101;51.056;7.262;2022-11-20T06:18:39;2.60;99.90
2190;DHT22;1101;51.056;7.262;2022-11-20T06:21:10;2.60;99.90
2190;DHT22;1101;51.056;7.262;2022-11-20T06:23:38;2.60;99.90
2190;DHT22;1101;51.056;7.262;2022-11-20T06:26:07;2.60;99.90
2190;DHT22;1101;51.056;7.262;2022-11-20T06:28:35;2.60;99.90
2190;DHT22;1101;51.056;7.262;2022-11-20T06:31:04;2.60;99.90
2190;DHT22;1101;51.056;7.262;2022-11-20T06:33:32;2.60;99.90
2190;DHT22;1101;51.056;7.262;2022-11-20T06:36:01;2.60;99.90
2190;DHT22;1101;51.056;7.262;2022-11-20T06:38:38;2.60;99.90
2190;DHT22;1101;51.056;7.262;2022-11-20T06:41:06;2.50;99.90
2190;DHT22;1101;51.056;7.262;2022-11-20T06:43:34;2.60;99.90
2190;DHT22;1101;51.056;7.262;2022-11-20T06:46:02;2.60;99.90
2190;DHT22;1101;51.056;7.262;2022-11-20T06:48:30;2.60;99.90
2190;DHT22;1101;51.056;7.262;2022-11-20T06:50:58;2.60;99.90
2190;DHT22;1101;51.056;7.262;2022-11-20T06:53:26;2.60;99.90
2190;DHT22;1101;51.056;7.262;2022-11-20T06:55:56;2.60;99.90
2190;DHT22;1101;51.056;7.262;2022-11-20T06:58:26;2.60;99.90
2190;DHT22;1101;51.056;7.262;2022-11-20T07:00:58;2.60;99.90
2190;DHT22;1101;51.056;7.262;2022-11-20T07:03:26;2.60;99.90
2190;DHT22;1101;51.056;7.262;2022-11-20T07:05:54;2.60;99.90
2190;DHT22;1101;51.056;7.262;2022-11-20T07:08:23;2.60;99.90
2190;DHT22;1101;51.056;7.262;2022-11-20T07:10:50;2.60;99.90
2190;DHT22;1101;51.056;7.262;2022-11-20T07:13:19;2.60;99.90
2190;DHT22;1101;51.056;7.262;2022-11-20T07:15:47;2.50;99.90
2190;DHT22;1101;51.056;7.262;2022-11-20T07:18:15;2.50;99.90
2190;DHT22;1101;51.056;7.262;2022-11-20T07:20:43;2.50;99.90
2190;DHT22;1101;51.056;7.262;2022-11-20T07:23:11;2.40;99.90
2190;DHT22;1101;51.056;7.262;2022-11-20T07:25:38;2.40;99.90
2190;DHT22;1101;51.056;7.262;2022-11-20T07:28:06;2.30;99.90
2190;DHT22;1101;51.056;7.262;2022-11-20T07:30:35;2.30;99.90
2190;DHT22;1101;51.056;7.262;2022-11-20T07:33:03;2.30;99.90
2190;DHT22;1101;51.056;7.262;2022-11-20T07:35:31;2.20;99.90
2190;DHT22;1101;51.056;7.262;2022-11-20T07:37:58;2.20;99.90
2190;DHT22;1101;51.056;7.262;2022-11-20T07:40:26;2.30;99.90
2190;DHT22;1101;51.056;7.262;2022-11-20T07:42:55;2.30;99.90
2190;DHT22;1101;51.056;7.262;2022-11-20T07:45:23;2.30;99.90
2190;DHT22;1101;51.056;7.262;2022-11-20T07:47:53;2.30;99.90
2190;DHT22;1101;51.056;7.262;2022-11-20T07:50:20;2.30;99.90
2190;DHT22;1101;51.056;7.262;2022-11-20T07:52:48;2.30;99.90
2190;DHT22;1101;51.056;7.262;2022-11-20T07:55:16;2.20;99.90
2190;DHT22;1101;51.056;7.262;2022-11-20T07:57:44;2.20;99.90
2190;DHT22;1101;51.056;7.262;2022-11-20T08:00:13;2.20;99.90
2190;DHT22;1101;51.056;7.262;2022-11-20T08:02:41;2.20;99.90
2190;DHT22;1101;51.056;7.262;2022-11-20T08:05:10;2.20;99.90
2190;DHT22;1101;51.056;7.262;2022-11-20T08:07:38;2.20;99.90
2190;DHT22;1101;51.056;7.262;2022-11-20T08:10:08;2.20;99.90
2190;DHT22;1101;51.056;7.262;2022-11-20T08:12:42;2.20;99.90
2190;DHT22;1101;51.056;7.262;2022-11-20T08:15:28;2.20;99.90
2190;DHT22;1101;51.056;7.262;2022-11-20T08:18:00;2.20;99.90
2190;DHT22;1101;51.056;7.262;2022-11-20T08:20:49;2.20;99.90
2190;DHT22;1101;51.056;7.262;2022-11-20T08:23:17;2.20;99.90
2190;DHT22;1101;51.056;7.262;2022-11-20T08:25:49;2.20;99.90
2190;DHT22;1101;51.056;7.262;2022-11-20T08:28:17;2.20;99.90
2190;DHT22;1101;51.056;7.262;2022-11-20T08:30:48;2.30;99.90
2190;DHT22;1101;51.056;7.262;2022-11-20T08:33:16;2.30;99.90
2190;DHT22;1101;51.056;7.262;2022-11-20T08:35:45;2.30;99.90
2190;DHT22;1101;51.056;7.262;2022-11-20T08:38:14;2.40;99.90
2190;DHT22;1101;51.056;7.262;2022-11-20T08:40:42;2.40;99.90
2190;DHT22;1101;51.056;7.262;2022-11-20T08:43:30;2.40;99.90
2190;DHT22;1101;51.056;7.262;2022-11-20T08:45:58;2.50;99.90
2190;DHT22;1101;51.056;7.262;2022-11-20T08:48:26;2.50;99.90
2190;DHT22;1101;51.056;7.262;2022-11-20T08:50:53;2.50;99.90
2190;DHT22;1101;51.056;7.262;2022-11-20T08:53:26;2.50;99.90
2190;DHT22;1101;51.056;7.262;2022-11-20T08:55:54;2.50;99.90
2190;DHT22;1101;51.056;7.262;2022-11-20T08:58:22;2.50;99.90
2190;DHT22;1101;51.056;7.262;2022-11-20T09:00:50;2.60;99.90
2190;DHT22;1101;51.056;7.262;2022-11-20T09:03:18;2.60;99.90
2190;DHT22;1101;51.056;7.262;2022-11-20T09:05:46;2.60;99.90
2190;DHT22;1101;51.056;7.262;2022-11-20T09:08:13;2.60;99.90
2190;DHT22;1101;51.056;7.262;2022-11-20T09:10:42;2.60;99.90
2190;DHT22;1101;51.056;7.262;2022-11-20T09:13:10;2.60;99.90
2190;DHT22;1101;51.056;7.262;2022-11-20T09:15:38;2.70;99.90
2190;DHT22;1101;51.056;7.262;2022-11-20T09:18:06;2.70;99.90
2190;DHT22;1101;51.056;7.262;2022-11-20T09:20:33;2.70;99.90
2190;DHT22;1101;51.056;7.262;2022-11-20T09:23:02;2.80;99.90
2190;DHT22;1101;51.056;7.262;2022-11-20T09:25:30;2.80;99.90
2190;DHT22;1101;51.056;7.262;2022-11-20T09:27:59;2.90;99.90
2190;DHT22;1101;51.056;7.262;2022-11-20T09:30:27;2.90;99.90
2190;DHT22;1101;51.056;7.262;2022-11-20T09:32:55;2.90;99.90
2190;DHT22;1101;51.056;7.262;2022-11-20T09:35:22;3.00;99.90
2190;DHT22;1101;51.056;7.262;2022-11-20T09:37:50;3.00;99.90
2190;DHT22;1101;51.056;7.262;2022-11-20T09:40:20;3.00;99.90
2190;DHT22;1101;51.056;7.262;2022-11-20T09:42:55;3.00;99.90
2190;DHT22;1101;51.056;7.262;2022-11-20T09:45:35;3.10;99.90
2190;DHT22;1101;51.056;7.262;2022-11-20T09:48:24;3.10;99.90
2190;DHT22;1101;51.056;7.262;2022-11-20T09:51:00;3.10;99.90
2190;DHT22;1101;51.056;7.262;2022-11-20T09:53:48;3.10;99.90
2190;DHT22;1101;51.056;7.262;2022-11-20T09:56:20;3.10;99.90
2190;DHT22;1101;51.056;7.262;2022-11-20T09:58:51;3.10;99.90
2190;DHT22;1101;51.056;7.262;2022-11-20T10:01:25;3.20;99.90
2190;DHT22;1101;51.056;7.262;2022-11-20T10:03:57;3.20;99.90
2190;DHT22;1101;51.056;7.262;2022-11-20T10:06:30;3.30;99.90
2190;DHT22;1101;51.056;7.262;2022-11-20T10:09:06;3.30;99.90
2190;DHT22;1101;51.056;7.262;2022-11-20T10:11:48;3.40;99.90
2190;DHT22;1101;51.056;7.262;2022-11-20T10:14:26;3.40;99.90
2190;DHT22;1101;51.056;7.262;2022-11-20T10:17:03;3.50;99.90
2190;DHT22;1101;51.056;7.262;2022-11-20T10:19:52;3.50;99.90
2190;DHT22;1101;51.056;7.262;2022-11-20T10:22:32;3.60;99.90
2190;DHT22;1101;51.056;7.262;2022-11-20T10:25:05;3.70;99.90
2190;DHT22;1101;51.056;7.262;2022-11-20T10:27:46;3.70;99.90
2190;DHT22;1101;51.056;7.262;2022-11-20T10:30:19;3.70;99.90
2190;DHT22;1101;51.056;7.262;2022-11-20T10:32:53;3.80;99.90
2190;DHT22;1101;51.056;7.262;2022-11-20T10:35:25;3.80;99.90
2190;DHT22;1101;51.056;7.262;2022-11-20T10:37:58;3.90;99.90
2190;DHT22;1101;51.056;7.262;2022-11-20T10:40:32;3.90;99.90
2190;DHT22;1101;51.056;7.262;2022-11-20T10:43:07;4.00;99.90
2190;DHT22;1101;51.056;7.262;2022-11-20T10:45:45;4.10;99.90
2190;DHT22;1101;51.056;7.262;2022-11-20T10:48:21;4.20;99.90
2190;DHT22;1101;51.056;7.262;2022-11-20T10:51:03;4.20;99.90
2190;DHT22;1101;51.056;7.262;2022-11-20T10:53:45;4.20;99.90
2190;DHT22;1101;51.056;7.262;2022-11-20T10:56:19;4.20;99.90
2190;DHT22;1101;51.056;7.262;2022-11-20T10:58:57;4.20;99.90
2190;DHT22;1101;51.056;7.262;2022-11-20T11:01:27;4.20;99.90
2190;DHT22;1101;51.056;7.262;2022-11-20T11:03:58;4.20;99.90
2190;DHT22;1101;51.056;7.262;2022-11-20T11:06:32;4.20;99.90
2190;DHT22;1101;51.056;7.262;2022-11-20T11:09:08;4.20;99.90
2190;DHT22;1101;51.056;7.262;2022-11-20T11:11:39;4.20;99.90
2190;DHT22;1101;51.056;7.262;2022-11-20T11:14:08;4.20;99.90
2190;DHT22;1101;51.056;7.262;2022-11-20T11:16:49;4.30;99.90
2190;DHT22;1101;51.056;7.262;2022-11-20T11:19:18;4.30;99.90
2190;DHT22;1101;51.056;7.262;2022-11-20T11:21:47;4.30;99.90
2190;DHT22;1101;51.056;7.262;2022-11-20T11:24:23;4.30;99.90
2190;DHT22;1101;51.056;7.262;2022-11-20T11:27:12;4.40;99.90
2190;DHT22;1101;51.056;7.262;2022-11-20T11:29:43;4.40;99.90
2190;DHT22;1101;51.056;7.262;2022-11-20T11:32:12;4.40;99.90
2190;DHT22;1101;51.056;7.262;2022-11-20T11:34:42;4.40;99.90
2190;DHT22;1101;51.056;7.262;2022-11-20T11:37:15;4.40;99.90
2190;DHT22;1101;51.056;7.262;2022-11-20T11:39:46;4.40;99.90
2190;DHT22;1101;51.056;7.262;2022-11-20T11:42:29;4.40;99.90
2190;DHT22;1101;51.056;7.262;2022-11-20T11:44:59;4.40;99.90
2190;DHT22;1101;51.056;7.262;2022-11-20T11:47:36;4.40;99.90
2190;DHT22;1101;51.056;7.262;2022-11-20T11:50:16;4.40;99.90
2190;DHT22;1101;51.056;7.262;2022-11-20T11:52:48;4.40;99.90
2190;DHT22;1101;51.056;7.262;2022-11-20T11:55:28;4.40;99.90
2190;DHT22;1101;51.056;7.262;2022-11-20T11:58:04;4.40;99.90
2190;DHT22;1101;51.056;7.262;2022-11-20T12:00:35;4.50;99.90
2190;DHT22;1101;51.056;7.262;2022-11-20T12:03:09;4.50;99.90
2190;DHT22;1101;51.056;7.262;2022-11-20T12:05:43;4.50;99.90
2190;DHT22;1101;51.056;7.262;2022-11-20T12:08:16;4.50;99.90
2190;DHT22;1101;51.056;7.262;2022-11-20T12:10:48;4.60;99.90
2190;DHT22;1101;51.056;7.262;2022-11-20T12:13:30;4.60;99.90
2190;DHT22;1101;51.056;7.262;2022-11-20T12:16:03;4.60;99.90
2190;DHT22;1101;51.056;7.262;2022-11-20T12:18:31;4.70;99.90
2190;DHT22;1101;51.056;7.262;2022-11-20T12:21:10;4.70;99.90
2190;DHT22;1101;51.056;7.262;2022-11-20T12:23:48;4.70;99.90
2190;DHT22;1101;51.056;7.262;2022-11-20T12:26:26;4.70;99.90
2190;DHT22;1101;51.056;7.262;2022-11-20T12:29:04;4.80;99.90
2190;DHT22;1101;51.056;7.262;2022-11-20T12:31:54;4.80;99.90
2190;DHT22;1101;51.056;7.262;2022-11-20T12:34:37;4.90;99.90
2190;DHT22;1101;51.056;7.262;2022-11-20T12:37:15;4.90;99.90
2190;DHT22;1101;51.056;7.262;2022-11-20T12:39:48;4.90;99.90
2190;DHT22;1101;51.056;7.262;2022-11-20T12:45:42;4.90;99.90
2190;DHT22;1101;51.056;7.262;2022-11-20T12:51:34;4.80;99.90
2190;DHT22;1101;51.056;7.262;2022-11-20T12:57:25;4.80;99.90
2190;DHT22;1101;51.056;7.262;2022-11-20T13:00:15;4.90;99.90
2190;DHT22;1101;51.056;7.262;2022-11-20T13:03:03;4.80;99.90
2190;DHT22;1101;51.056;7.262;2022-11-20T13:05:43;4.90;99.90
2190;DHT22;1101;51.056;7.262;2022-11-20T13:08:20;4.90;99.90
2190;DHT22;1101;51.056;7.262;2022-11-20T13:10:52;4.90;99.90
2190;DHT22;1101;51.056;7.262;2022-11-20T13:13:28;4.90;99.90
2190;DHT22;1101;51.056;7.262;2022-11-20T13:16:02;4.90;99.90
2190;DHT22;1101;51.056;7.262;2022-11-20T13:18:36;4.90;99.90
2190;DHT22;1101;51.056;7.262;2022-11-20T13:21:17;4.90;99.90
2190;DHT22;1101;51.056;7.262;2022-11-20T13:23:46;4.90;99.90
2190;DHT22;1101;51.056;7.262;2022-11-20T13:26:19;4.80;99.90
2190;DHT22;1101;51.056;7.262;2022-11-20T13:29:01;4.80;99.90
2190;DHT22;1101;51.056;7.262;2022-11-20T13:31:35;4.80;99.90
2190;DHT22;1101;51.056;7.262;2022-11-20T13:34:05;4.80;99.90
2190;DHT22;1101;51.056;7.262;2022-11-20T13:36:34;4.80;99.90
2190;DHT22;1101;51.056;7.262;2022-11-20T13:39:03;4.80;99.90
2190;DHT22;1101;51.056;7.262;2022-11-20T13:41:32;4.80;99.90
2190;DHT22;1101;51.056;7.262;2022-11-20T13:44:12;4.80;99.90
2190;DHT22;1101;51.056;7.262;2022-11-20T13:46:42;4.80;99.90
2190;DHT22;1101;51.056;7.262;2022-11-20T13:49:17;4.80;99.90
2190;DHT22;1101;51.056;7.262;2022-11-20T13:51:47;4.80;99.90
2190;DHT22;1101;51.056;7.262;2022-11-20T13:54:52;4.80;99.90
2190;DHT22;1101;51.056;7.262;2022-11-20T14:00:25;4.80;99.90
2190;DHT22;1101;51.056;7.262;2022-11-20T14:03:01;4.70;99.90
2190;DHT22;1101;51.056;7.262;2022-11-20T14:05:32;4.70;99.90
2190;DHT22;1101;51.056;7.262;2022-11-20T14:08:03;4.70;99.90
2190;DHT22;1101;51.056;7.262;2022-11-20T14:10:31;4.70;99.90
2190;DHT22;1101;51.056;7.262;2022-11-20T14:13:10;4.80;99.90
2190;DHT22;1101;51.056;7.262;2022-11-20T14:15:41;4.80;99.90
2190;DHT22;1101;51.056;7.262;2022-11-20T14:18:13;4.80;99.90
2190;DHT22;1101;51.056;7.262;2022-11-20T14:20:42;4.80;99.90
2190;DHT22;1101;51.056;7.262;2022-11-20T14:23:10;4.80;99.90
2190;DHT22;1101;51.056;7.262;2022-11-20T14:25:42;4.80;99.90
2190;DHT22;1101;51.056;7.262;2022-11-20T14:28:17;4.80;99.90
2190;DHT22;1101;51.056;7.262;2022-11-20T14:30:49;4.80;99.90
2190;DHT22;1101;51.056;7.262;2022-11-20T14:33:17;4.80;99.90
2190;DHT22;1101;51.056;7.262;2022-11-20T14:35:47;4.80;99.90
2190;DHT22;1101;51.056;7.262;2022-11-20T14:38:18;4.80;99.90
2190;DHT22;1101;51.056;7.262;2022-11-20T14:40:47;4.80;99.90
2190;DHT22;1101;51.056;7.262;2022-11-20T14:43:22;4.80;99.90
2190;DHT22;1101;51.056;7.262;2022-11-20T14:45:56;4.80;99.90
2190;DHT22;1101;51.056;7.262;2022-11-20T14:48:30;4.80;99.90
2190;DHT22;1101;51.056;7.262;2022-11-20T14:50:59;4.80;99.90
2190;DHT22;1101;51.056;7.262;2022-11-20T14:53:26;4.70;99.90
2190;DHT22;1101;51.056;7.262;2022-11-20T14:55:56;4.70;99.90
2190;DHT22;1101;51.056;7.262;2022-11-20T14:58:26;4.70;99.90
2190;DHT22;1101;51.056;7.262;2022-11-20T15:00:57;4.70;99.90
2190;DHT22;1101;51.056;7.262;2022-11-20T15:03:31;4.70;99.90
2190;DHT22;1101;51.056;7.262;2022-11-20T15:06:00;4.70;99.90
2190;DHT22;1101;51.056;7.262;2022-11-20T15:08:28;4.70;99.90
2190;DHT22;1101;51.056;7.262;2022-11-20T15:10:55;4.70;99.90
2190;DHT22;1101;51.056;7.262;2022-11-20T15:13:26;4.70;99.90
2190;DHT22;1101;51.056;7.262;2022-11-20T15:15:59;4.70;99.90
2190;DHT22;1101;51.056;7.262;2022-11-20T15:18:29;4.70;99.90
2190;DHT22;1101;51.056;7.262;2022-11-20T15:21:01;4.70;99.90
2190;DHT22;1101;51.056;7.262;2022-11-20T15:23:29;4.60;99.90
2190;DHT22;1101;51.056;7.262;2022-11-20T15:25:57;4.70;99.90
2190;DHT22;1101;51.056;7.262;2022-11-20T15:28:30;4.70;99.90
2190;DHT22;1101;51.056;7.262;2022-11-20T15:31:00;4.70;99.90
2190;DHT22;1101;51.056;7.262;2022-11-20T15:33:28;4.70;99.90
2190;DHT22;1101;51.056;7.262;2022-11-20T15:35:56;4.60;99.90
2190;DHT22;1101;51.056;7.262;2022-11-20T15:38:24;4.60;99.90
2190;DHT22;1101;51.056;7.262;2022-11-20T15:40:52;4.70;99.90
2190;DHT22;1101;51.056;7.262;2022-11-20T15:43:20;4.70;99.90
2190;DHT22;1101;51.056;7.262;2022-11-20T15:45:50;4.70;99.90
2190;DHT22;1101;51.056;7.262;2022-11-20T15:48:21;4.70;99.90
2190;DHT22;1101;51.056;7.262;2022-11-20T15:50:54;4.70;99.90
2190;DHT22;1101;51.056;7.262;2022-11-20T15:53:24;4.70;99.90
2190;DHT22;1101;51.056;7.262;2022-11-20T15:55:51;4.70;99.90
2190;DHT22;1101;51.056;7.262;2022-11-20T15:58:19;4.70;99.90
2190;DHT22;1101;51.056;7.262;2022-11-20T16:00:49;4.70;99.90
2190;DHT22;1101;51.056;7.262;2022-11-20T16:03:18;4.70;99.90
2190;DHT22;1101;51.056;7.262;2022-11-20T16:05:47;4.70;99.90
2190;DHT22;1101;51.056;7.262;2022-11-20T16:08:15;4.70;99.90
2190;DHT22;1101;51.056;7.262;2022-11-20T16:10:43;4.70;99.90
2190;DHT22;1101;51.056;7.262;2022-11-20T16:13:15;4.70;99.90
2190;DHT22;1101;51.056;7.262;2022-11-20T16:16:04;4.70;99.90
2190;DHT22;1101;51.056;7.262;2022-11-20T16:18:33;4.70;99.90
2190;DHT22;1101;51.056;7.262;2022-11-20T16:21:02;4.70;99.90
2190;DHT22;1101;51.056;7.262;2022-11-20T16:23:30;4.70;99.90
2190;DHT22;1101;51.056;7.262;2022-11-20T16:25:59;4.70;99.90
2190;DHT22;1101;51.056;7.262;2022-11-20T16:28:35;4.70;99.90
2190;DHT22;1101;51.056;7.262;2022-11-20T16:31:08;4.70;99.90
2190;DHT22;1101;51.056;7.262;2022-11-20T16:33:36;4.70;99.90
2190;DHT22;1101;51.056;7.262;2022-11-20T16:36:10;4.70;99.90
2190;DHT22;1101;51.056;7.262;2022-11-20T16:38:39;4.70;99.90
2190;DHT22;1101;51.056;7.262;2022-11-20T16:41:08;4.70;99.90
2190;DHT22;1101;51.056;7.262;2022-11-20T16:43:47;4.70;99.90
2190;DHT22;1101;51.056;7.262;2022-11-20T16:46:15;4.70;99.90
2190;DHT22;1101;51.056;7.262;2022-11-20T16:48:44;4.70;99.90
2190;DHT22;1101;51.056;7.262;2022-11-20T16:51:13;4.80;99.90
2190;DHT22;1101;51.056;7.262;2022-11-20T16:53:40;4.80;99.90